createdAt,value
2019-03-04T00:02:12.083Z,30.60
2019-03-04T00:05:04.845Z,25.53
2019-03-04T00:07:56.231Z,21.33
2019-03-04T00:10:46.606Z,23.53
2019-03-04T00:13:40.217Z,23.00
2019-03-04T00:16:31.479Z,20.37
2019-03-04T00:19:25.246Z,18.93
2019-03-04T00:22:22.933Z,17.67
2019-03-04T00:25:14.290Z,21.30
2019-03-04T00:28:07.750Z,19.93
2019-03-04T08:47:34.852Z,20.53
2019-03-04T08:50:25.771Z,34.80
2019-03-04T08:53:16.003Z,36.27
2019-03-04T08:56:05.785Z,14.50
2019-03-04T08:58:55.374Z,19.10
2019-03-04T09:01:44.949Z,14.30
2019-03-04T09:04:34.407Z,17.47
2019-03-04T09:07:46.092Z,14.73
2019-03-04T09:10:43.085Z,12.80
2019-03-04T09:13:36.911Z,12.83
2019-03-04T09:16:27.904Z,9.80
2019-03-04T09:19:24.762Z,10.17
2019-03-04T09:22:17.412Z,9.20
2019-03-04T09:25:30.624Z,9.97
2019-03-04T09:28:19.774Z,8.67
2019-03-04T09:31:10.392Z,9.03
2019-03-04T09:34:03.588Z,10.03
2019-03-04T09:36:59.640Z,9.93
2019-03-04T09:39:49.982Z,13.73
2019-03-04T09:42:43.115Z,8.90
2019-03-04T09:45:39.226Z,13.23
2019-03-04T09:48:30.076Z,12.97
2019-03-04T09:51:24.894Z,9.00
2019-03-04T09:54:21.236Z,13.40
2019-03-04T09:57:10.997Z,13.17
2019-03-04T10:00:02.674Z,12.77
2019-03-04T10:02:53.554Z,11.43
2019-03-04T10:05:51.865Z,13.73
2019-03-04T10:09:18.389Z,10.90
2019-03-04T10:12:44.923Z,9.73
2019-03-04T10:16:02.326Z,9.80
2019-03-04T10:19:50.806Z,10.70
2019-03-04T10:23:21.431Z,10.33
2019-03-04T10:26:38.137Z,9.73
2019-03-04T10:30:07.018Z,8.10
2019-03-04T10:33:34.517Z,7.87
2019-03-04T10:36:51.897Z,8.57
2019-03-04T10:40:11.882Z,7.93
2019-03-04T10:43:31.792Z,7.73
2019-03-04T10:46:56.366Z,7.73
2019-03-04T10:49:49.369Z,11.03
2019-03-04T10:52:40.560Z,9.20
2019-03-04T10:55:30.640Z,9.47
2019-03-04T10:58:20.127Z,8.23
2019-03-04T11:01:10.163Z,7.37
2019-03-04T11:03:59.989Z,7.43
2019-03-04T11:06:49.575Z,7.50
2019-03-04T11:09:39.601Z,12.47
2019-03-04T11:12:30.926Z,10.70
2019-03-04T11:15:23.263Z,9.73
2019-03-04T11:18:13.099Z,6.93
2019-03-04T11:21:14.491Z,6.23
2019-03-04T11:24:06.656Z,5.00
2019-03-04T11:26:55.834Z,5.10
2019-03-04T11:29:45.210Z,5.00
2019-03-04T11:32:34.364Z,5.83
2019-03-04T11:35:24.138Z,5.30
2019-03-04T11:38:32.667Z,7.33
2019-03-04T11:41:23.325Z,5.87
2019-03-04T11:44:12.676Z,5.93
2019-03-04T11:47:02.031Z,4.97
2019-03-04T11:49:53.437Z,4.23
2019-03-04T11:52:43.206Z,4.87
2019-03-04T11:55:32.676Z,5.23
2019-03-04T11:58:22.476Z,5.20
2019-03-04T12:01:24.074Z,4.87
2019-03-04T12:04:13.894Z,4.97
2019-03-04T12:07:03.177Z,4.83
2019-03-04T12:09:55.348Z,3.30
2019-03-04T12:12:48.641Z,3.57
2019-03-04T12:15:37.575Z,3.53
2019-03-04T12:18:28.174Z,3.53
2019-03-04T12:21:17.859Z,4.20
2019-03-04T12:24:07.083Z,4.53
2019-03-04T12:26:56.764Z,3.43
2019-03-04T12:29:46.288Z,5.23
2019-03-04T12:32:36.321Z,4.90
2019-03-04T12:35:25.986Z,3.70
2019-03-04T12:38:15.939Z,3.13
2019-03-04T12:41:06.200Z,2.90
2019-03-04T12:43:55.948Z,6.50
2019-03-04T12:46:48.327Z,3.53
2019-03-04T12:49:38.867Z,4.20
2019-03-04T12:52:28.754Z,4.30
2019-03-04T12:55:18.169Z,3.77
2019-03-04T12:58:07.325Z,3.23
2019-03-04T13:00:56.822Z,8.30
2019-03-04T13:03:46.496Z,7.27
2019-03-04T13:06:36.643Z,5.30
2019-03-04T13:09:26.167Z,3.93
2019-03-04T13:12:16.196Z,5.80
2019-03-04T13:15:06.312Z,10.17
2019-03-04T13:17:55.253Z,7.50
2019-03-04T13:20:45.709Z,6.43
2019-03-04T13:23:35.184Z,4.73
2019-03-04T13:26:24.724Z,3.87
2019-03-04T13:29:14.436Z,5.30
2019-03-04T13:32:03.773Z,5.13
2019-03-04T13:34:53.150Z,5.27
2019-03-04T13:37:43.343Z,8.13
2019-03-04T13:40:32.088Z,6.27
2019-03-04T13:43:22.693Z,5.83
2019-03-04T13:46:13.086Z,6.00
2019-03-04T13:49:02.562Z,10.57
2019-03-04T13:51:52.132Z,8.40
2019-03-04T13:54:41.083Z,9.60
2019-03-04T13:57:30.312Z,4.00
2019-03-04T14:00:01.310Z,16.17
2019-03-04T14:02:32.703Z,8.77
2019-03-04T14:05:03.923Z,8.70
2019-03-04T14:07:35.310Z,6.97
2019-03-04T14:10:07.580Z,13.00
2019-03-04T14:12:38.628Z,12.10
2019-03-04T14:15:13.032Z,9.23
2019-03-04T14:17:44.502Z,6.60
2019-03-04T14:20:15.719Z,16.17
2019-03-04T14:22:56.988Z,6.60
2019-03-04T14:25:19.468Z,6.93
2019-03-04T14:27:50.851Z,5.23
2019-03-04T14:30:22.120Z,5.37
2019-03-04T14:32:53.661Z,6.20
2019-03-04T14:35:24.656Z,4.50
2019-03-04T14:37:55.636Z,3.30
2019-03-04T14:40:26.816Z,3.33
2019-03-04T14:42:57.912Z,5.83
2019-03-04T14:45:29.001Z,9.90
2019-03-04T14:48:00.540Z,9.43
2019-03-04T14:50:32.249Z,13.57
2019-03-04T14:53:03.243Z,16.87
2019-03-04T14:55:39.191Z,26.00
2019-03-04T14:58:10.184Z,9.70
2019-03-04T15:00:42.769Z,9.50
2019-03-04T15:03:22.094Z,8.30
2019-03-04T15:05:47.301Z,11.60
2019-03-04T15:08:18.547Z,10.77
2019-03-04T15:10:49.620Z,7.10
2019-03-04T15:13:20.615Z,8.83
2019-03-04T15:16:01.132Z,7.90
2019-03-04T15:18:24.740Z,8.70
2019-03-04T15:20:56.143Z,13.37
2019-03-04T15:23:27.212Z,13.87
2019-03-04T15:25:59.647Z,16.87
2019-03-04T15:28:31.139Z,16.70
2019-03-04T15:31:02.637Z,8.97
2019-03-04T15:33:34.058Z,22.30
2019-03-04T15:36:05.165Z,20.47
2019-03-04T15:38:36.613Z,23.17
2019-03-04T15:41:07.954Z,19.80
2019-03-04T15:43:39.000Z,17.00
2019-03-04T15:46:10.089Z,21.23
2019-03-04T15:48:42.152Z,17.70
2019-03-04T15:51:13.220Z,19.27
2019-03-04T15:53:44.217Z,18.27
2019-03-04T15:56:15.219Z,16.03
2019-03-04T15:58:47.036Z,10.77
2019-03-04T16:01:18.569Z,24.03
2019-03-04T16:03:49.955Z,22.00
2019-03-04T16:06:21.550Z,19.03
2019-03-04T16:08:52.526Z,4.67
2019-03-04T16:11:23.997Z,15.57
2019-03-04T16:13:56.297Z,14.30
2019-03-04T16:16:27.460Z,14.40
2019-03-04T16:18:58.545Z,13.53
2019-03-04T16:21:29.616Z,11.17
2019-03-04T16:24:00.961Z,24.83
2019-03-04T16:26:33.183Z,25.23
2019-03-04T16:29:04.280Z,19.00
2019-03-04T16:31:35.716Z,20.37
2019-03-04T16:34:06.961Z,10.13
2019-03-04T16:36:40.476Z,14.60
2019-03-04T16:39:11.792Z,15.67
2019-03-04T16:41:42.970Z,19.30
2019-03-04T16:44:14.100Z,16.60
2019-03-04T16:46:46.735Z,24.87
2019-03-04T16:49:18.070Z,27.97
2019-03-04T16:51:49.179Z,19.60
2019-03-04T16:54:21.972Z,12.83
2019-03-04T16:56:53.083Z,40.70
2019-03-04T16:59:24.085Z,19.40
2019-03-04T17:01:55.115Z,10.43
2019-03-04T17:04:26.139Z,9.07
2019-03-04T17:06:58.592Z,11.17
2019-03-04T17:09:30.162Z,14.13
2019-03-04T17:12:01.181Z,11.50
2019-03-04T17:14:32.672Z,10.90
2019-03-04T17:17:13.514Z,15.83
2019-03-04T17:19:44.887Z,18.67
2019-03-04T17:22:16.213Z,18.00
2019-03-04T17:24:47.314Z,16.80
2019-03-04T17:27:18.578Z,14.47
2019-03-04T17:29:50.083Z,27.83
2019-03-04T17:32:23.997Z,34.07
2019-03-04T17:34:55.560Z,34.93
2019-03-04T17:37:26.956Z,31.83
2019-03-04T17:39:58.020Z,17.77
2019-03-04T17:42:32.225Z,14.80
2019-03-04T17:45:03.379Z,12.83
2019-03-04T17:47:34.376Z,14.37
2019-03-04T17:50:07.961Z,15.57
2019-03-04T17:52:40.058Z,24.73
2019-03-04T17:55:12.313Z,18.13
2019-03-04T17:57:43.322Z,12.57
2019-03-04T18:00:16.407Z,17.70
2019-03-04T18:02:47.885Z,28.03
2019-03-04T18:05:18.982Z,25.77
2019-03-04T18:07:50.378Z,22.20
2019-03-04T18:10:21.893Z,19.93
2019-03-04T18:12:54.019Z,14.23
2019-03-04T18:15:25.251Z,16.27
2019-03-04T18:17:56.235Z,28.97
2019-03-04T18:20:34.398Z,26.87
2019-03-04T18:23:00.321Z,60.53
2019-03-04T18:25:41.013Z,42.53
2019-03-04T18:28:17.857Z,38.07
2019-03-04T18:31:17.735Z,34.67
2019-03-04T18:34:30.928Z,29.03
2019-03-04T18:37:47.830Z,34.83
2019-03-04T18:41:05.600Z,31.77
2019-03-04T18:44:20.576Z,38.77
2019-03-04T18:47:39.299Z,40.27
2019-03-04T18:50:10.294Z,33.17
2019-03-04T18:52:41.295Z,14.03
2019-03-04T18:55:13.496Z,12.70
2019-03-04T18:57:44.486Z,27.97
2019-03-04T19:00:18.337Z,18.20
2019-03-04T19:02:49.768Z,20.83
2019-03-04T19:05:20.977Z,21.03
2019-03-04T19:07:52.384Z,22.43
2019-03-04T19:10:24.371Z,34.63
2019-03-04T19:12:55.757Z,61.60
2019-03-04T19:15:26.771Z,54.90
2019-03-04T19:17:58.264Z,52.43
2019-03-04T19:20:30.184Z,41.57
2019-03-04T19:23:03.335Z,73.77
2019-03-04T19:25:34.410Z,67.07
2019-03-04T19:28:05.836Z,66.57
2019-03-04T19:30:36.850Z,83.40
2019-03-04T19:33:07.889Z,77.33
2019-03-04T19:35:38.900Z,70.17
2019-03-04T19:38:11.316Z,69.00
2019-03-04T19:40:43.472Z,62.20
2019-03-04T19:43:14.835Z,37.90
2019-03-04T19:45:46.651Z,61.73
2019-03-04T19:48:17.819Z,52.10
2019-03-04T19:50:48.817Z,64.80
2019-03-04T19:53:20.303Z,91.20
2019-03-04T19:55:51.375Z,96.70
2019-03-04T19:58:22.832Z,128.50
2019-03-04T20:00:54.426Z,111.87
2019-03-04T20:03:25.606Z,71.37
2019-03-04T20:05:56.768Z,30.80
2019-03-04T20:08:27.955Z,27.17
2019-03-04T20:11:01.143Z,217.43
2019-03-04T20:13:32.749Z,131.83
2019-03-04T20:16:04.280Z,102.63
2019-03-04T20:18:36.205Z,84.73
2019-03-04T20:21:08.571Z,136.50
2019-03-04T20:23:40.041Z,174.13
2019-03-04T20:26:11.473Z,162.37
2019-03-04T20:28:42.584Z,129.60
2019-03-04T20:31:13.642Z,127.60
2019-03-04T20:33:45.314Z,120.60
2019-03-04T20:36:17.614Z,120.50
2019-03-04T20:38:49.684Z,116.40
2019-03-04T20:41:21.391Z,96.30
2019-03-04T20:43:52.416Z,83.23
2019-03-04T20:46:23.408Z,85.97
2019-03-04T20:48:55.218Z,64.97
2019-03-04T20:51:27.379Z,58.97
2019-03-04T20:53:59.951Z,54.87
2019-03-04T20:56:31.033Z,53.77
2019-03-04T20:59:24.033Z,48.23
2019-03-04T21:02:14.808Z,79.27
2019-03-04T21:05:10.861Z,70.40
2019-03-04T21:08:02.758Z,57.40
2019-03-04T21:10:51.635Z,45.57
2019-03-04T21:13:41.809Z,40.37
2019-03-04T21:16:31.113Z,40.87
2019-03-04T21:19:21.949Z,43.33
2019-03-04T21:22:11.425Z,40.17
2019-03-04T21:25:01.768Z,21.33
2019-03-04T21:27:54.290Z,25.13
2019-03-04T21:31:39.456Z,26.03
2019-03-04T21:35:09.992Z,41.97
2019-03-04T21:38:00.353Z,36.93
2019-03-04T21:41:11.202Z,94.87
2019-03-04T21:44:47.574Z,58.77
2019-03-04T21:47:44.379Z,47.37
2019-03-04T21:50:57.955Z,61.03
2019-03-04T21:53:51.403Z,40.77
2019-03-04T21:57:23.622Z,30.37
2019-03-04T22:00:23.551Z,27.17
2019-03-04T22:03:25.410Z,30.53
2019-03-04T22:06:16.579Z,28.83
2019-03-04T22:09:07.427Z,27.43
2019-03-04T22:11:58.429Z,28.03
2019-03-04T22:14:48.593Z,34.00
2019-03-04T22:17:38.198Z,28.53
2019-03-04T22:20:29.873Z,26.73
2019-03-04T22:23:19.948Z,32.90
2019-03-04T22:26:10.507Z,32.27
2019-03-04T22:29:00.230Z,50.63
2019-03-04T22:31:51.629Z,29.83
2019-03-04T22:34:43.972Z,32.50
2019-03-04T22:37:34.029Z,23.07
2019-03-04T22:40:24.812Z,28.13
2019-03-04T22:43:15.652Z,30.27
2019-03-04T22:46:06.842Z,34.27
2019-03-04T22:48:56.332Z,47.27
2019-03-04T22:51:50.629Z,36.57
2019-03-04T22:54:41.326Z,20.87
2019-03-04T22:57:35.397Z,37.33
2019-03-04T23:01:30.967Z,23.17
2019-03-04T23:04:41.141Z,29.00
2019-03-04T23:07:36.566Z,19.77
2019-03-04T23:10:35.430Z,17.10
2019-03-04T23:14:08.511Z,14.63
2019-03-04T23:17:00.230Z,14.80
2019-03-04T23:19:50.160Z,27.30
2019-03-04T23:22:41.681Z,39.20
2019-03-04T23:25:36.962Z,31.57
2019-03-04T23:28:28.057Z,24.73
2019-03-04T23:31:17.845Z,18.07
2019-03-04T23:34:10.225Z,18.57
2019-03-04T23:37:04.650Z,18.00
2019-03-04T23:40:07.381Z,20.40
2019-03-04T23:42:57.278Z,22.37
2019-03-04T23:45:47.116Z,24.77
2019-03-04T23:48:37.044Z,25.57
2019-03-04T23:51:31.212Z,22.33
2019-03-04T23:54:21.549Z,22.90
2019-03-04T23:57:17.397Z,19.83
